Rush, Pennsylvania
Current Conditions -  °F | °C
As of 4:58 PM on Monday 24 Nov 2014 (Local Time) from KMUI Reporting Station
Clear Clear  
Wind Chill: 65°   Ceiling: Unl
Heat Index: 65°   Visibility: 10mi
Dew Point: 52°   Wind: 6mph
Humidity: 64%   Direction: 200°SSW
Pressure: 29.6"   Gusts: NA
Location:  40.5383°N, 76.6127°W
Report Text: KMUI 242158Z AUTO 20005KT 10SM CLR 18/11 A2960 RMK AO2 SLP025 T01820112 $
Loading
Personal Weather Stations






























Interactive Weather Map New forecast layout! Learn more

10-Day Weather Forecast

Advertisements
Track Severe Weather on mobile